sensor_id;sensor_type;location;lat;lon;timestamp;pressure;altitude;pressure_sealevel;temperature;humidity
26635;BME280;14490;54.208;37.686;2022-07-23T00:01:23;99019.41;;;17.84;94.42
26635;BME280;14490;54.208;37.686;2022-07-23T00:03:53;99025.88;;;17.83;94.36
26635;BME280;14490;54.208;37.686;2022-07-23T00:06:21;99000.84;;;17.65;94.40
26635;BME280;14490;54.208;37.686;2022-07-23T00:08:49;98993.09;;;17.54;94.53
26635;BME280;14490;54.208;37.686;2022-07-23T00:11:17;99035.13;;;17.74;94.70
26635;BME280;14490;54.208;37.686;2022-07-23T00:13:45;99000.94;;;17.48;95.21
26635;BME280;14490;54.208;37.686;2022-07-23T00:16:12;99037.59;;;17.61;95.48
26635;BME280;14490;54.208;37.686;2022-07-23T00:18:42;99014.19;;;17.52;95.72
26635;BME280;14490;54.208;37.686;2022-07-23T00:21:09;99016.97;;;17.43;95.79
26635;BME280;14490;54.208;37.686;2022-07-23T00:23:37;99037.97;;;17.58;95.71
26635;BME280;14490;54.208;37.686;2022-07-23T00:26:05;99017.25;;;17.48;95.61
26635;BME280;14490;54.208;37.686;2022-07-23T00:28:33;99032.88;;;17.55;96.10
26635;BME280;14490;54.208;37.686;2022-07-23T00:31:01;99012.91;;;17.39;95.92
26635;BME280;14490;54.208;37.686;2022-07-23T00:33:29;99014.34;;;17.27;96.64
26635;BME280;14490;54.208;37.686;2022-07-23T00:35:58;99034.31;;;17.42;96.66
26635;BME280;14490;54.208;37.686;2022-07-23T00:38:25;99035.03;;;17.36;96.41
26635;BME280;14490;54.208;37.686;2022-07-23T00:40:53;98938.16;;;16.82;96.52
26635;BME280;14490;54.208;37.686;2022-07-23T00:43:21;99038.59;;;17.37;96.92
26635;BME280;14490;54.208;37.686;2022-07-23T00:45:49;98961.91;;;16.88;96.93
26635;BME280;14490;54.208;37.686;2022-07-23T00:48:16;99048.13;;;17.33;97.06
26635;BME280;14490;54.208;37.686;2022-07-23T00:50:44;99050.03;;;17.32;97.00
26635;BME280;14490;54.208;37.686;2022-07-23T00:53:14;99043.59;;;17.25;97.33
26635;BME280;14490;54.208;37.686;2022-07-23T00:55:42;99026.69;;;17.07;97.22
26635;BME280;14490;54.208;37.686;2022-07-23T00:58:11;98971.81;;;16.73;97.40
26635;BME280;14490;54.208;37.686;2022-07-23T01:00:39;98984.03;;;16.77;97.46
26635;BME280;14490;54.208;37.686;2022-07-23T01:03:07;99056.41;;;17.17;97.54
26635;BME280;14490;54.208;37.686;2022-07-23T01:05:35;99046.94;;;17.05;97.83
26635;BME280;14490;54.208;37.686;2022-07-23T01:08:03;98984.06;;;16.69;97.95
26635;BME280;14490;54.208;37.686;2022-07-23T01:10:34;99058.31;;;17.08;98.16
26635;BME280;14490;54.208;37.686;2022-07-23T01:13:03;99064.09;;;17.05;98.35
26635;BME280;14490;54.208;37.686;2022-07-23T01:15:33;99066.81;;;17.05;98.23
26635;BME280;14490;54.208;37.686;2022-07-23T01:18:03;99052.59;;;16.95;98.43
26635;BME280;14490;54.208;37.686;2022-07-23T01:20:32;99068.19;;;17.01;98.71
26635;BME280;14490;54.208;37.686;2022-07-23T01:23:01;99065.63;;;17.00;98.64
26635;BME280;14490;54.208;37.686;2022-07-23T01:25:29;99069.56;;;16.97;99.13
26635;BME280;14490;54.208;37.686;2022-07-23T01:27:56;99081.81;;;16.93;98.95
26635;BME280;14490;54.208;37.686;2022-07-23T01:30:24;99067.91;;;16.88;99.22
26635;BME280;14490;54.208;37.686;2022-07-23T01:32:52;99067.91;;;16.88;99.51
26635;BME280;14490;54.208;37.686;2022-07-23T01:35:20;98981.97;;;16.32;99.49
26635;BME280;14490;54.208;37.686;2022-07-23T01:37:47;99048.44;;;16.60;99.76
26635;BME280;14490;54.208;37.686;2022-07-23T01:40:17;99057.41;;;16.77;99.57
26635;BME280;14490;54.208;37.686;2022-07-23T01:42:45;99070.97;;;16.85;99.58
26635;BME280;14490;54.208;37.686;2022-07-23T01:45:12;99074.72;;;16.84;99.79
26635;BME280;14490;54.208;37.686;2022-07-23T01:47:43;99063.50;;;16.79;99.57
26635;BME280;14490;54.208;37.686;2022-07-23T01:50:11;99034.50;;;16.71;99.75
26635;BME280;14490;54.208;37.686;2022-07-23T01:52:39;99046.53;;;16.77;99.35
26635;BME280;14490;54.208;37.686;2022-07-23T01:55:07;99062.31;;;16.81;99.56
26635;BME280;14490;54.208;37.686;2022-07-23T01:57:37;99063.16;;;16.82;99.49
26635;BME280;14490;54.208;37.686;2022-07-23T02:00:06;99038.75;;;16.74;99.72
26635;BME280;14490;54.208;37.686;2022-07-23T02:02:34;99032.81;;;16.70;99.39
26635;BME280;14490;54.208;37.686;2022-07-23T02:05:02;99019.56;;;16.67;99.30
26635;BME280;14490;54.208;37.686;2022-07-23T02:07:30;99048.88;;;16.88;98.95
26635;BME280;14490;54.208;37.686;2022-07-23T02:09:57;99026.16;;;16.73;98.91
26635;BME280;14490;54.208;37.686;2022-07-23T02:12:25;99042.06;;;16.92;98.98
26635;BME280;14490;54.208;37.686;2022-07-23T02:14:54;99017.50;;;16.77;98.88
26635;BME280;14490;54.208;37.686;2022-07-23T02:17:22;99049.81;;;17.03;98.39
26635;BME280;14490;54.208;37.686;2022-07-23T02:19:50;99044.03;;;17.06;98.07
26635;BME280;14490;54.208;37.686;2022-07-23T02:22:17;99027.22;;;17.03;98.08
26635;BME280;14490;54.208;37.686;2022-07-23T02:24:45;99044.31;;;17.19;97.89
26635;BME280;14490;54.208;37.686;2022-07-23T02:27:13;99047.03;;;17.19;97.67
26635;BME280;14490;54.208;37.686;2022-07-23T02:29:40;99033.13;;;17.14;97.49
26635;BME280;14490;54.208;37.686;2022-07-23T02:32:10;99036.66;;;17.15;97.36
26635;BME280;14490;54.208;37.686;2022-07-23T02:34:37;99047.69;;;17.21;97.07
26635;BME280;14490;54.208;37.686;2022-07-23T02:37:05;99014.84;;;17.00;97.18
26635;BME280;14490;54.208;37.686;2022-07-23T02:39:34;99067.88;;;17.27;96.97
26635;BME280;14490;54.208;37.686;2022-07-23T02:42:02;99063.28;;;17.27;97.10
26635;BME280;14490;54.208;37.686;2022-07-23T02:44:29;99070.44;;;17.28;97.00
26635;BME280;14490;54.208;37.686;2022-07-23T02:46:57;99060.06;;;17.24;97.03
26635;BME280;14490;54.208;37.686;2022-07-23T02:49:26;99059.63;;;17.20;96.72
26635;BME280;14490;54.208;37.686;2022-07-23T02:51:54;99044.47;;;17.18;96.39
26635;BME280;14490;54.208;37.686;2022-07-23T02:54:22;98985.03;;;16.84;96.64
26635;BME280;14490;54.208;37.686;2022-07-23T02:56:49;99068.72;;;17.35;96.38
26635;BME280;14490;54.208;37.686;2022-07-23T02:59:17;99077.09;;;17.48;96.04
26635;BME280;14490;54.208;37.686;2022-07-23T03:01:45;99070.63;;;17.58;95.94
26635;BME280;14490;54.208;37.686;2022-07-23T03:04:13;99074.38;;;17.57;95.59
26635;BME280;14490;54.208;37.686;2022-07-23T03:06:42;99058.75;;;17.51;94.94
26635;BME280;14490;54.208;37.686;2022-07-23T03:09:10;99009.31;;;17.16;94.72
26635;BME280;14490;54.208;37.686;2022-07-23T03:11:37;99079.94;;;17.63;94.68
26635;BME280;14490;54.208;37.686;2022-07-23T03:14:05;99072.81;;;17.54;94.62
26635;BME280;14490;54.208;37.686;2022-07-23T03:16:33;99095.09;;;17.66;94.18
26635;BME280;14490;54.208;37.686;2022-07-23T03:19:01;99084.72;;;17.61;94.23
26635;BME280;14490;54.208;37.686;2022-07-23T03:21:29;99009.63;;;17.21;93.95
26635;BME280;14490;54.208;37.686;2022-07-23T03:23:58;99089.09;;;17.70;93.61
26635;BME280;14490;54.208;37.686;2022-07-23T03:26:26;99077.72;;;17.67;93.81
26635;BME280;14490;54.208;37.686;2022-07-23T03:28:53;99089.50;;;17.82;93.38
26635;BME280;14490;54.208;37.686;2022-07-23T03:31:21;99090.47;;;17.89;93.04
26635;BME280;14490;54.208;37.686;2022-07-23T03:33:49;99047.78;;;17.67;93.15
26635;BME280;14490;54.208;37.686;2022-07-23T03:36:16;99094.84;;;17.98;92.89
26635;BME280;14490;54.208;37.686;2022-07-23T03:38:44;99094.75;;;18.06;92.79
26635;BME280;14490;54.208;37.686;2022-07-23T03:41:13;99102.22;;;18.12;92.51
26635;BME280;14490;54.208;37.686;2022-07-23T03:43:41;99096.22;;;18.17;92.29
26635;BME280;14490;54.208;37.686;2022-07-23T03:46:09;99066.88;;;18.04;92.29
26635;BME280;14490;54.208;37.686;2022-07-23T03:48:36;99097.28;;;18.30;91.94
26635;BME280;14490;54.208;37.686;2022-07-23T03:51:04;99105.09;;;18.33;91.73
26635;BME280;14490;54.208;37.686;2022-07-23T03:53:32;99095.88;;;18.34;91.03
26635;BME280;14490;54.208;37.686;2022-07-23T03:55:59;99103.97;;;18.42;90.96
26635;BME280;14490;54.208;37.686;2022-07-23T03:58:29;99084.25;;;18.40;90.51
26635;BME280;14490;54.208;37.686;2022-07-23T04:00:57;99066.00;;;18.26;90.13
26635;BME280;14490;54.208;37.686;2022-07-23T04:03:24;99110.16;;;18.59;90.08
26635;BME280;14490;54.208;37.686;2022-07-23T04:05:52;99095.03;;;18.57;89.52
26635;BME280;14490;54.208;37.686;2022-07-23T04:08:20;99081.09;;;18.51;89.39
26635;BME280;14490;54.208;37.686;2022-07-23T04:10:48;99103.13;;;18.65;88.86
26635;BME280;14490;54.208;37.686;2022-07-23T04:13:15;99089.88;;;18.62;88.94
26635;BME280;14490;54.208;37.686;2022-07-23T04:15:45;99019.03;;;18.24;88.59
26635;BME280;14490;54.208;37.686;2022-07-23T04:18:12;99077.94;;;18.63;88.46
26635;BME280;14490;54.208;37.686;2022-07-23T04:20:42;99110.19;;;18.88;88.42
26635;BME280;14490;54.208;37.686;2022-07-23T04:23:10;99092.97;;;18.88;88.20
26635;BME280;14490;54.208;37.686;2022-07-23T04:25:38;99054.06;;;18.65;88.27
26635;BME280;14490;54.208;37.686;2022-07-23T04:28:06;99097.50;;;19.10;88.01
26635;BME280;14490;54.208;37.686;2022-07-23T04:30:34;99018.50;;;18.73;87.66
26635;BME280;14490;54.208;37.686;2022-07-23T04:33:03;99107.34;;;19.26;87.60
26635;BME280;14490;54.208;37.686;2022-07-23T04:35:32;99105.38;;;19.34;87.62
26635;BME280;14490;54.208;37.686;2022-07-23T04:38:00;99100.88;;;19.41;87.10
26635;BME280;14490;54.208;37.686;2022-07-23T04:40:29;99078.72;;;19.36;86.72
26635;BME280;14490;54.208;37.686;2022-07-23T04:42:57;99091.47;;;19.44;86.38
26635;BME280;14490;54.208;37.686;2022-07-23T04:45:25;99075.47;;;19.41;86.16
26635;BME280;14490;54.208;37.686;2022-07-23T04:47:53;99103.78;;;19.54;85.88
26635;BME280;14490;54.208;37.686;2022-07-23T04:50:22;99082.59;;;19.56;85.65
26635;BME280;14490;54.208;37.686;2022-07-23T04:52:50;99070.34;;;19.52;85.80
26635;BME280;14490;54.208;37.686;2022-07-23T04:55:18;99033.28;;;19.43;85.79
26635;BME280;14490;54.208;37.686;2022-07-23T04:57:46;99089.63;;;19.87;85.76
26635;BME280;14490;54.208;37.686;2022-07-23T05:00:14;99072.78;;;19.83;85.59
26635;BME280;14490;54.208;37.686;2022-07-23T05:02:42;99102.50;;;20.14;85.64
26635;BME280;14490;54.208;37.686;2022-07-23T05:05:10;99072.59;;;20.06;85.54
26635;BME280;14490;54.208;37.686;2022-07-23T05:07:39;99116.03;;;20.43;85.63
26635;BME280;14490;54.208;37.686;2022-07-23T05:10:07;99117.59;;;20.52;85.74
26635;BME280;14490;54.208;37.686;2022-07-23T05:12:35;99046.06;;;20.21;84.34
26635;BME280;14490;54.208;37.686;2022-07-23T05:15:04;99122.28;;;20.58;82.94
26635;BME280;14490;54.208;37.686;2022-07-23T05:17:32;99108.75;;;20.50;81.57
26635;BME280;14490;54.208;37.686;2022-07-23T05:20:03;99072.06;;;20.38;81.20
26635;BME280;14490;54.208;37.686;2022-07-23T05:22:31;99115.59;;;20.67;80.97
26635;BME280;14490;54.208;37.686;2022-07-23T05:25:01;99108.06;;;20.69;80.56
26635;BME280;14490;54.208;37.686;2022-07-23T05:27:30;99102.66;;;20.76;80.52
26635;BME280;14490;54.208;37.686;2022-07-23T05:29:58;99090.88;;;20.76;80.32
26635;BME280;14490;54.208;37.686;2022-07-23T05:32:26;99101.75;;;20.97;79.98
26635;BME280;14490;54.208;37.686;2022-07-23T05:34:53;99001.63;;;20.40;79.18
26635;BME280;14490;54.208;37.686;2022-07-23T05:37:21;99112.19;;;21.14;79.12
26635;BME280;14490;54.208;37.686;2022-07-23T05:39:49;99097.88;;;21.19;79.12
26635;BME280;14490;54.208;37.686;2022-07-23T05:42:18;99106.59;;;21.36;79.24
26635;BME280;14490;54.208;37.686;2022-07-23T05:44:46;99095.44;;;21.37;78.74
26635;BME280;14490;54.208;37.686;2022-07-23T05:47:14;99102.00;;;21.49;78.35
26635;BME280;14490;54.208;37.686;2022-07-23T05:49:42;99120.44;;;21.68;77.11
26635;BME280;14490;54.208;37.686;2022-07-23T05:52:09;99090.91;;;21.57;76.47
26635;BME280;14490;54.208;37.686;2022-07-23T05:54:38;99078.28;;;21.63;75.09
26635;BME280;14490;54.208;37.686;2022-07-23T05:57:05;99119.28;;;21.91;75.09
26635;BME280;14490;54.208;37.686;2022-07-23T05:59:35;99078.72;;;21.79;74.84
26635;BME280;14490;54.208;37.686;2022-07-23T06:02:02;99104.97;;;22.08;74.53
26635;BME280;14490;54.208;37.686;2022-07-23T06:04:30;99069.13;;;21.97;73.75
26635;BME280;14490;54.208;37.686;2022-07-23T06:06:58;99096.97;;;22.20;73.27
26635;BME280;14490;54.208;37.686;2022-07-23T06:09:26;99099.72;;;22.26;72.83
26635;BME280;14490;54.208;37.686;2022-07-23T06:11:54;99102.88;;;22.30;73.00
26635;BME280;14490;54.208;37.686;2022-07-23T06:14:21;99105.41;;;22.38;73.03
26635;BME280;14490;54.208;37.686;2022-07-23T06:16:51;99092.75;;;22.44;73.20
26635;BME280;14490;54.208;37.686;2022-07-23T06:19:18;99090.25;;;22.49;73.61
26635;BME280;14490;54.208;37.686;2022-07-23T06:21:46;99089.16;;;22.56;73.82
26635;BME280;14490;54.208;37.686;2022-07-23T06:24:14;99068.50;;;22.54;73.55
26635;BME280;14490;54.208;37.686;2022-07-23T06:26:41;99081.81;;;22.76;73.24
26635;BME280;14490;54.208;37.686;2022-07-23T06:29:09;99086.22;;;22.84;71.05
26635;BME280;14490;54.208;37.686;2022-07-23T06:31:37;98981.84;;;22.26;69.71
26635;BME280;14490;54.208;37.686;2022-07-23T06:34:06;99068.72;;;22.92;69.90
26635;BME280;14490;54.208;37.686;2022-07-23T06:36:34;99065.72;;;23.00;70.24
26635;BME280;14490;54.208;37.686;2022-07-23T06:39:02;99044.19;;;22.97;70.19
26635;BME280;14490;54.208;37.686;2022-07-23T06:41:30;98959.47;;;22.49;70.41
26635;BME280;14490;54.208;37.686;2022-07-23T06:43:57;98993.78;;;22.78;69.74
26635;BME280;14490;54.208;37.686;2022-07-23T06:46:25;99008.13;;;22.86;68.44
26635;BME280;14490;54.208;37.686;2022-07-23T06:48:53;99078.28;;;23.33;67.21
26635;BME280;14490;54.208;37.686;2022-07-23T06:51:22;99074.47;;;23.41;66.33
26635;BME280;14490;54.208;37.686;2022-07-23T06:53:50;99055.47;;;23.33;66.50
26635;BME280;14490;54.208;37.686;2022-07-23T06:56:17;99085.41;;;23.54;66.85
26635;BME280;14490;54.208;37.686;2022-07-23T06:58:45;99047.00;;;23.41;66.86
26635;BME280;14490;54.208;37.686;2022-07-23T07:01:13;99088.09;;;23.67;66.28
26635;BME280;14490;54.208;37.686;2022-07-23T07:03:43;99083.41;;;23.74;66.12
26635;BME280;14490;54.208;37.686;2022-07-23T07:06:12;99081.03;;;23.84;65.88
26635;BME280;14490;54.208;37.686;2022-07-23T07:08:41;99083.94;;;23.89;65.55
26635;BME280;14490;54.208;37.686;2022-07-23T07:11:09;99077.56;;;23.95;66.06
26635;BME280;14490;54.208;37.686;2022-07-23T07:13:37;99080.50;;;24.01;66.41
26635;BME280;14490;54.208;37.686;2022-07-23T07:16:06;99080.66;;;24.06;66.21
26635;BME280;14490;54.208;37.686;2022-07-23T07:18:34;98964.59;;;23.41;65.50
26635;BME280;14490;54.208;37.686;2022-07-23T07:21:02;99040.59;;;23.91;63.11
26635;BME280;14490;54.208;37.686;2022-07-23T07:23:29;99068.81;;;24.12;62.52
26635;BME280;14490;54.208;37.686;2022-07-23T07:25:58;99077.03;;;24.18;60.18
26635;BME280;14490;54.208;37.686;2022-07-23T07:28:26;99076.59;;;24.21;60.50
26635;BME280;14490;54.208;37.686;2022-07-23T07:30:54;98984.66;;;23.79;60.97
26635;BME280;14490;54.208;37.686;2022-07-23T07:33:24;99036.00;;;24.17;61.37
26635;BME280;14490;54.208;37.686;2022-07-23T07:35:52;99041.03;;;24.20;61.76
26635;BME280;14490;54.208;37.686;2022-07-23T07:38:20;99078.94;;;24.42;61.20
26635;BME280;14490;54.208;37.686;2022-07-23T07:40:47;99072.16;;;24.45;60.79
26635;BME280;14490;54.208;37.686;2022-07-23T07:43:17;99073.41;;;24.49;60.94
26635;BME280;14490;54.208;37.686;2022-07-23T07:45:44;99069.09;;;24.53;60.80
26635;BME280;14490;54.208;37.686;2022-07-23T07:48:12;99051.28;;;24.37;60.43
26635;BME280;14490;54.208;37.686;2022-07-23T07:50:40;99073.75;;;24.59;60.43
26635;BME280;14490;54.208;37.686;2022-07-23T07:53:07;99062.09;;;24.57;60.20
26635;BME280;14490;54.208;37.686;2022-07-23T07:55:35;99077.06;;;24.68;60.29
26635;BME280;14490;54.208;37.686;2022-07-23T07:58:03;99075.28;;;24.73;60.03
26635;BME280;14490;54.208;37.686;2022-07-23T08:00:32;99070.09;;;24.65;59.40
26635;BME280;14490;54.208;37.686;2022-07-23T08:03:00;99089.84;;;24.80;59.60
26635;BME280;14490;54.208;37.686;2022-07-23T08:05:29;99079.91;;;24.79;59.27
26635;BME280;14490;54.208;37.686;2022-07-23T08:07:58;99075.25;;;24.80;58.50
26635;BME280;14490;54.208;37.686;2022-07-23T08:10:27;99099.28;;;24.91;58.75
26635;BME280;14490;54.208;37.686;2022-07-23T08:12:58;99070.56;;;24.80;58.68
26635;BME280;14490;54.208;37.686;2022-07-23T08:15:28;99080.63;;;24.93;58.32
26635;BME280;14490;54.208;37.686;2022-07-23T08:17:59;99051.09;;;24.82;58.14
26635;BME280;14490;54.208;37.686;2022-07-23T08:20:26;99059.75;;;24.85;58.08
26635;BME280;14490;54.208;37.686;2022-07-23T08:22:56;99085.88;;;25.19;58.34
26635;BME280;14490;54.208;37.686;2022-07-23T08:25:26;99095.13;;;25.25;57.75
26635;BME280;14490;54.208;37.686;2022-07-23T08:27:57;99007.56;;;24.72;57.00
26635;BME280;14490;54.208;37.686;2022-07-23T08:30:26;99075.38;;;25.10;57.00
26635;BME280;14490;54.208;37.686;2022-07-23T08:32:56;99057.41;;;25.07;56.89
26635;BME280;14490;54.208;37.686;2022-07-23T08:35:28;99090.75;;;25.35;57.44
26635;BME280;14490;54.208;37.686;2022-07-23T08:37:57;99031.44;;;24.96;57.44
26635;BME280;14490;54.208;37.686;2022-07-23T08:40:28;99096.19;;;25.42;57.19
26635;BME280;14490;54.208;37.686;2022-07-23T08:42:57;99083.63;;;25.46;56.81
26635;BME280;14490;54.208;37.686;2022-07-23T08:45:26;99091.00;;;25.52;57.58
26635;BME280;14490;54.208;37.686;2022-07-23T08:47:56;99049.34;;;25.24;57.09
26635;BME280;14490;54.208;37.686;2022-07-23T08:50:25;99079.19;;;25.45;57.49
26635;BME280;14490;54.208;37.686;2022-07-23T08:52:53;99072.81;;;25.44;56.97
26635;BME280;14490;54.208;37.686;2022-07-23T08:55:23;98964.25;;;24.86;57.06
26635;BME280;14490;54.208;37.686;2022-07-23T08:57:52;99073.69;;;25.63;56.88
26635;BME280;14490;54.208;37.686;2022-07-23T09:00:21;99077.50;;;25.80;56.77
26635;BME280;14490;54.208;37.686;2022-07-23T09:02:50;99072.53;;;26.00;56.75
26635;BME280;14490;54.208;37.686;2022-07-23T09:05:19;99066.44;;;26.10;56.59
26635;BME280;14490;54.208;37.686;2022-07-23T09:08:07;99062.00;;;26.09;56.14
26635;BME280;14490;54.208;37.686;2022-07-23T09:10:52;99050.94;;;25.97;56.03
26635;BME280;14490;54.208;37.686;2022-07-23T09:13:26;99065.59;;;26.09;55.58
26635;BME280;14490;54.208;37.686;2022-07-23T09:16:00;99067.47;;;25.97;55.67
26635;BME280;14490;54.208;37.686;2022-07-23T09:18:35;99065.19;;;25.94;55.77
26635;BME280;14490;54.208;37.686;2022-07-23T09:21:12;99046.75;;;25.95;55.43
26635;BME280;14490;54.208;37.686;2022-07-23T09:23:44;99072.06;;;26.03;55.44
26635;BME280;14490;54.208;37.686;2022-07-23T09:26:23;99059.00;;;25.99;55.57
26635;BME280;14490;54.208;37.686;2022-07-23T09:28:59;98991.03;;;25.75;55.69
26635;BME280;14490;54.208;37.686;2022-07-23T09:31:32;99032.50;;;26.09;55.15
26635;BME280;14490;54.208;37.686;2022-07-23T09:34:10;99042.19;;;26.42;55.44
26635;BME280;14490;54.208;37.686;2022-07-23T09:36:41;99051.34;;;26.77;55.10
26635;BME280;14490;54.208;37.686;2022-07-23T09:39:10;99048.84;;;26.99;54.02
26635;BME280;14490;54.208;37.686;2022-07-23T09:41:40;98916.28;;;26.06;52.99
26635;BME280;14490;54.208;37.686;2022-07-23T09:44:11;99025.16;;;26.68;53.05
26635;BME280;14490;54.208;37.686;2022-07-23T09:46:48;98989.53;;;26.43;53.22
26635;BME280;14490;54.208;37.686;2022-07-23T09:49:19;99051.59;;;26.87;53.27
26635;BME280;14490;54.208;37.686;2022-07-23T09:51:52;99059.75;;;26.82;52.59
26635;BME280;14490;54.208;37.686;2022-07-23T09:54:31;98934.06;;;26.10;52.75
26635;BME280;14490;54.208;37.686;2022-07-23T09:57:03;99038.88;;;26.86;52.95
26635;BME280;14490;54.208;37.686;2022-07-23T09:59:39;99049.09;;;26.86;52.96
26635;BME280;14490;54.208;37.686;2022-07-23T10:02:09;98947.50;;;26.30;52.99
26635;BME280;14490;54.208;37.686;2022-07-23T10:04:39;99032.88;;;26.89;53.43
26635;BME280;14490;54.208;37.686;2022-07-23T10:07:09;99037.06;;;26.92;53.69
26635;BME280;14490;54.208;37.686;2022-07-23T10:09:38;99031.31;;;26.82;53.75
26635;BME280;14490;54.208;37.686;2022-07-23T10:12:11;99007.50;;;26.69;53.93
26635;BME280;14490;54.208;37.686;2022-07-23T10:14:52;99015.09;;;26.85;53.61
26635;BME280;14490;54.208;37.686;2022-07-23T10:17:21;98940.09;;;26.53;53.07
26635;BME280;14490;54.208;37.686;2022-07-23T10:19:48;99025.97;;;27.15;52.30
26635;BME280;14490;54.208;37.686;2022-07-23T10:22:23;99011.94;;;27.17;52.26
26635;BME280;14490;54.208;37.686;2022-07-23T10:24:58;99020.34;;;27.10;51.99
26635;BME280;14490;54.208;37.686;2022-07-23T10:27:46;99031.84;;;27.19;50.57
26635;BME280;14490;54.208;37.686;2022-07-23T10:30:28;98958.44;;;26.71;51.04
26635;BME280;14490;54.208;37.686;2022-07-23T10:33:11;99010.38;;;27.21;51.27
26635;BME280;14490;54.208;37.686;2022-07-23T10:35:49;98993.97;;;27.31;51.11
26635;BME280;14490;54.208;37.686;2022-07-23T10:38:33;99005.16;;;27.36;51.23
26635;BME280;14490;54.208;37.686;2022-07-23T10:41:07;99013.94;;;27.21;51.16
26635;BME280;14490;54.208;37.686;2022-07-23T10:43:34;98969.34;;;26.78;51.39
26635;BME280;14490;54.208;37.686;2022-07-23T10:46:22;98985.06;;;26.77;50.67
26635;BME280;14490;54.208;37.686;2022-07-23T10:49:22;99012.56;;;26.95;51.26
26635;BME280;14490;54.208;37.686;2022-07-23T10:52:16;99000.28;;;27.14;51.18
26635;BME280;14490;54.208;37.686;2022-07-23T10:54:48;99000.94;;;27.33;50.98
26635;BME280;14490;54.208;37.686;2022-07-23T10:57:17;98994.59;;;27.33;50.67
26635;BME280;14490;54.208;37.686;2022-07-23T11:00:11;98993.59;;;27.50;50.74
26635;BME280;14490;54.208;37.686;2022-07-23T11:02:43;98955.28;;;27.42;50.67
26635;BME280;14490;54.208;37.686;2022-07-23T11:05:14;98995.31;;;27.68;50.75
26635;BME280;14490;54.208;37.686;2022-07-23T11:08:11;98996.53;;;27.60;49.45
26635;BME280;14490;54.208;37.686;2022-07-23T11:10:49;98964.78;;;27.35;50.16
26635;BME280;14490;54.208;37.686;2022-07-23T11:13:46;98980.28;;;27.47;51.24
26635;BME280;14490;54.208;37.686;2022-07-23T11:16:25;98945.28;;;27.13;52.37
26635;BME280;14490;54.208;37.686;2022-07-23T11:18:58;98968.22;;;27.13;52.80
26635;BME280;14490;54.208;37.686;2022-07-23T11:21:46;98981.22;;;27.01;52.33
26635;BME280;14490;54.208;37.686;2022-07-23T11:24:23;98952.28;;;26.92;53.16
26635;BME280;14490;54.208;37.686;2022-07-23T11:27:02;98977.78;;;27.23;53.58
26635;BME280;14490;54.208;37.686;2022-07-23T11:29:47;98983.41;;;27.28;53.70
26635;BME280;14490;54.208;37.686;2022-07-23T11:32:33;98983.91;;;27.25;52.47
26635;BME280;14490;54.208;37.686;2022-07-23T11:35:19;98963.19;;;27.10;52.50
26635;BME280;14490;54.208;37.686;2022-07-23T11:37:54;98950.94;;;27.06;53.81
26635;BME280;14490;54.208;37.686;2022-07-23T11:40:30;98963.53;;;27.14;54.16
26635;BME280;14490;54.208;37.686;2022-07-23T11:43:00;98891.34;;;26.59;53.61
26635;BME280;14490;54.208;37.686;2022-07-23T11:45:33;98880.09;;;26.37;53.77
26635;BME280;14490;54.208;37.686;2022-07-23T11:48:05;98963.19;;;27.10;53.91
26635;BME280;14490;54.208;37.686;2022-07-23T11:50:35;98960.78;;;27.02;53.75
26635;BME280;14490;54.208;37.686;2022-07-23T11:53:03;98947.00;;;26.79;53.05
26635;BME280;14490;54.208;37.686;2022-07-23T11:55:31;98966.78;;;26.99;53.13
26635;BME280;14490;54.208;37.686;2022-07-23T11:58:01;98903.91;;;26.78;52.89
26635;BME280;14490;54.208;37.686;2022-07-23T12:00:30;98967.72;;;27.17;52.69
26635;BME280;14490;54.208;37.686;2022-07-23T12:03:00;98973.25;;;27.17;52.31
26635;BME280;14490;54.208;37.686;2022-07-23T12:05:30;98950.78;;;27.13;52.32
26635;BME280;14490;54.208;37.686;2022-07-23T12:08:02;98932.66;;;27.05;52.19
26635;BME280;14490;54.208;37.686;2022-07-23T12:10:34;98976.31;;;27.32;51.75
26635;BME280;14490;54.208;37.686;2022-07-23T12:13:07;98954.63;;;27.24;51.23
26635;BME280;14490;54.208;37.686;2022-07-23T12:15:38;98955.44;;;27.24;51.43
26635;BME280;14490;54.208;37.686;2022-07-23T12:18:08;98976.09;;;27.45;51.35
26635;BME280;14490;54.208;37.686;2022-07-23T12:20:39;98974.84;;;27.41;51.09
26635;BME280;14490;54.208;37.686;2022-07-23T12:23:09;98968.03;;;27.32;50.95
26635;BME280;14490;54.208;37.686;2022-07-23T12:25:40;98942.91;;;27.05;51.24
26635;BME280;14490;54.208;37.686;2022-07-23T12:28:12;98951.16;;;27.17;51.41
26635;BME280;14490;54.208;37.686;2022-07-23T12:30:42;98948.84;;;27.25;51.94
26635;BME280;14490;54.208;37.686;2022-07-23T12:33:13;98953.72;;;27.35;51.82
26635;BME280;14490;54.208;37.686;2022-07-23T12:35:44;98928.06;;;27.23;52.15
26635;BME280;14490;54.208;37.686;2022-07-23T12:38:14;98890.13;;;26.90;51.91
26635;BME280;14490;54.208;37.686;2022-07-23T12:40:44;98950.25;;;27.28;52.37
26635;BME280;14490;54.208;37.686;2022-07-23T12:43:21;98940.50;;;27.37;52.84
26635;BME280;14490;54.208;37.686;2022-07-23T12:45:51;98921.56;;;27.29;52.47
26635;BME280;14490;54.208;37.686;2022-07-23T12:48:22;98905.66;;;27.36;52.57
26635;BME280;14490;54.208;37.686;2022-07-23T12:50:53;98869.03;;;27.29;52.43
26635;BME280;14490;54.208;37.686;2022-07-23T12:53:23;98908.59;;;27.74;51.95
26635;BME280;14490;54.208;37.686;2022-07-23T12:55:59;98872.41;;;27.59;51.27
26635;BME280;14490;54.208;37.686;2022-07-23T12:58:40;98911.13;;;28.09;51.37
26635;BME280;14490;54.208;37.686;2022-07-23T13:01:10;98902.09;;;28.13;51.06
26635;BME280;14490;54.208;37.686;2022-07-23T13:03:56;98914.16;;;28.24;50.17
26635;BME280;14490;54.208;37.686;2022-07-23T13:06:25;98897.06;;;28.10;50.13